Time;durP1;ratioP1;P1;durP2;ratioP2;P2;SDS_P1;SDS_P2;PMS_P1;PMS_P2;Temp;Humidity;BMP_temperature;BMP_pressure;BME280_temperature;BME280_humidity;BME280_pressure;Samples;Min_cycle;Max_cycle;Signal;HPM_P1;HPM_P2
2021/07/22 00:00:13;;;;;;;6.35;2.30;;;;;;;22.68;100.00;101152.75;4940258;29;20404;-70
2021/07/22 00:02:58;;;;;;;5.55;3.78;;;;;;;23.00;100.00;101152.53;4940554;29;20032;-71
2021/07/22 00:05:44;;;;;;;4.75;2.15;;;;;;;22.79;100.00;101152.97;4939499;29;20031;-70
2021/07/22 00:08:30;;;;;;;4.43;2.20;;;;;;;23.01;100.00;101162.25;4940700;29;20365;-71
2021/07/22 00:11:16;;;;;;;4.18;2.20;;;;;;;22.76;100.00;101162.03;4926813;29;20048;-70
2021/07/22 00:14:01;;;;;;;3.85;2.42;;;;;;;22.85;100.00;101169.50;4939441;29;20028;-71
2021/07/22 00:16:47;;;;;;;3.33;2.20;;;;;;;23.35;100.00;101177.09;4939445;29;20401;-71
2021/07/22 00:19:35;;;;;;;4.35;2.83;;;;;;;23.07;100.00;101175.22;4939277;29;20038;-71
2021/07/22 00:22:21;;;;;;;3.13;2.20;;;;;;;23.29;100.00;101162.28;4940506;28;20039;-70
2021/07/22 00:25:08;;;;;;;3.92;2.25;;;;;;;23.16;100.00;101169.31;4940877;28;20032;-71
2021/07/22 00:27:54;;;;;;;4.70;1.92;;;;;;;23.23;100.00;101164.50;4940057;29;20039;-71
2021/07/22 00:30:39;;;;;;;2.90;2.15;;;;;;;22.93;100.00;101164.53;4938996;29;20123;-71
2021/07/22 00:33:25;;;;;;;6.07;2.20;;;;;;;22.93;100.00;101163.66;4939572;29;20038;-71
2021/07/22 00:36:12;;;;;;;6.15;2.30;;;;;;;23.25;100.00;101162.56;4939633;29;20035;-71
2021/07/22 00:38:58;;;;;;;4.70;2.00;;;;;;;23.04;100.00;101164.75;4939056;29;20536;-71
2021/07/22 00:41:44;;;;;;;3.28;2.10;;;;;;;22.94;100.00;101165.38;4940002;29;20468;-71
2021/07/22 00:44:30;;;;;;;5.03;2.45;;;;;;;22.60;100.00;101163.03;4939271;29;20062;-71
2021/07/22 00:47:16;;;;;;;3.88;2.35;;;;;;;22.59;100.00;101175.53;4939380;29;20035;-70
2021/07/22 00:50:02;;;;;;;4.43;2.30;;;;;;;22.97;100.00;101170.53;4938653;29;20027;-70
2021/07/22 00:52:48;;;;;;;4.53;2.20;;;;;;;22.44;100.00;101164.88;4938892;29;20059;-70
2021/07/22 00:55:34;;;;;;;4.72;2.20;;;;;;;22.22;100.00;101167.09;4939128;29;20058;-71
2021/07/22 00:58:19;;;;;;;2.95;2.08;;;;;;;22.33;100.00;101167.31;4925940;29;20028;-70
2021/07/22 01:01:05;;;;;;;4.97;2.00;;;;;;;22.44;100.00;101171.09;4939169;29;20031;-70
2021/07/22 01:03:51;;;;;;;3.38;2.22;;;;;;;22.52;100.00;101170.66;4938895;29;20330;-70
2021/07/22 01:06:37;;;;;;;5.10;2.05;;;;;;;22.42;100.00;101161.44;4939058;29;20027;-70
2021/07/22 01:09:22;;;;;;;4.85;2.30;;;;;;;22.36;100.00;101160.00;4939183;29;20051;-71
2021/07/22 01:12:08;;;;;;;5.22;2.50;;;;;;;22.75;100.00;101168.31;4938666;29;20050;-71
2021/07/22 01:14:54;;;;;;;3.05;2.40;;;;;;;22.50;100.00;101170.75;4939443;29;20114;-71
2021/07/22 01:17:48;;;;;;;3.47;2.15;;;;;;;22.29;100.00;101166.63;4938887;29;20103;-70
2021/07/22 01:20:34;;;;;;;9.27;2.30;;;;;;;21.96;100.00;101173.06;4938969;29;20027;-70
2021/07/22 01:23:20;;;;;;;3.67;2.20;;;;;;;22.21;100.00;101179.56;4925867;29;20031;-70
2021/07/22 01:26:05;;;;;;;3.95;2.15;;;;;;;22.54;100.00;101180.28;4938976;29;20035;-70
2021/07/22 01:28:51;;;;;;;6.18;2.60;;;;;;;22.60;100.00;101182.63;4939771;29;20028;-70
2021/07/22 01:31:37;;;;;;;6.68;2.35;;;;;;;22.24;100.00;101171.38;4938560;29;20023;-70
2021/07/22 01:34:22;;;;;;;6.32;2.55;;;;;;;22.40;100.00;101180.22;4937997;29;20024;-70
2021/07/22 01:37:08;;;;;;;2.60;2.30;;;;;;;22.49;100.00;101176.16;4924507;29;20028;-71
2021/07/22 01:39:54;;;;;;;4.05;2.40;;;;;;;22.50;100.00;101180.56;4938130;29;20032;-70
2021/07/22 01:42:40;;;;;;;4.47;2.30;;;;;;;22.78;100.00;101185.97;4938055;29;20067;-71
2021/07/22 01:45:26;;;;;;;7.18;2.45;;;;;;;21.95;100.00;101190.03;4938921;29;20032;-70
2021/07/22 01:48:12;;;;;;;5.55;2.40;;;;;;;22.30;100.00;101184.38;4938423;29;20032;-71
2021/07/22 01:50:57;;;;;;;4.57;2.25;;;;;;;22.57;100.00;101193.47;4938521;29;20028;-71
2021/07/22 01:53:43;;;;;;;5.13;2.30;;;;;;;22.80;100.00;101197.44;4938121;29;20090;-69
2021/07/22 01:56:29;;;;;;;5.30;2.30;;;;;;;22.63;100.00;101194.94;4938197;29;20412;-71
2021/07/22 01:59:15;;;;;;;3.00;2.30;;;;;;;22.57;100.00;101196.16;4938082;29;20070;-71
2021/07/22 02:02:02;;;;;;;7.45;2.40;;;;;;;22.29;100.00;101197.81;4937446;29;20058;-71
2021/07/22 02:04:48;;;;;;;2.83;2.10;;;;;;;22.27;100.00;101197.88;4937726;29;20484;-70
2021/07/22 02:07:33;;;;;;;3.08;2.40;;;;;;;22.73;100.00;101198.75;4937332;29;20475;-69
2021/07/22 02:10:20;;;;;;;3.30;2.40;;;;;;;22.72;100.00;101194.38;4939062;28;20450;-70
2021/07/22 02:13:05;;;;;;;3.72;2.42;;;;;;;22.42;100.00;101190.81;4937217;29;20032;-69
2021/07/22 02:15:51;;;;;;;3.42;2.35;;;;;;;22.42;100.00;101193.50;4937891;29;20036;-69
2021/07/22 02:18:37;;;;;;;4.13;2.22;;;;;;;22.60;100.00;101197.78;4937315;29;20063;-71
2021/07/22 02:21:23;;;;;;;2.85;2.45;;;;;;;22.30;100.00;101197.72;4938928;28;20039;-70
2021/07/22 02:24:10;;;;;;;6.32;2.33;;;;;;;22.44;100.00;101189.78;4937860;29;20035;-70
2021/07/22 02:26:56;;;;;;;4.07;2.30;;;;;;;22.19;100.00;101202.81;4937753;29;20457;-70
2021/07/22 02:29:42;;;;;;;6.38;2.28;;;;;;;22.13;100.00;101205.84;4937210;29;20039;-70
2021/07/22 02:32:28;;;;;;;5.07;2.90;;;;;;;22.40;100.00;101201.59;4936997;29;20035;-70
2021/07/22 02:35:13;;;;;;;3.92;2.70;;;;;;;22.59;100.00;101210.25;4937978;29;20032;-70
2021/07/22 02:37:59;;;;;;;4.03;2.45;;;;;;;22.55;100.00;101207.88;4937392;29;20448;-69
2021/07/22 02:40:45;;;;;;;4.78;2.40;;;;;;;22.31;100.00;101211.94;4937466;29;20035;-69
2021/07/22 02:43:34;;;;;;;6.05;2.80;;;;;;;22.16;100.00;101216.34;4937362;29;20110;-70
2021/07/22 02:46:20;;;;;;;3.63;2.58;;;;;;;22.49;100.00;101213.56;4937539;29;20520;-70
2021/07/22 02:49:05;;;;;;;4.20;2.45;;;;;;;22.44;100.00;101218.28;4937489;29;20115;-70
2021/07/22 02:51:52;;;;;;;4.78;2.60;;;;;;;22.36;100.00;101210.72;4936916;29;20027;-70
2021/07/22 02:54:38;;;;;;;4.38;2.50;;;;;;;22.01;100.00;101216.34;4936857;29;20063;-70
2021/07/22 02:57:25;;;;;;;5.43;2.72;;;;;;;22.00;100.00;101219.97;4937790;29;20028;-70
2021/07/22 03:00:11;;;;;;;7.35;2.50;;;;;;;22.19;100.00;101218.81;4936592;29;20458;-70
2021/07/22 03:03:01;;;;;;;3.33;2.60;;;;;;;22.13;100.00;101221.84;4937404;29;20019;-70
2021/07/22 03:05:47;;;;;;;4.85;2.40;;;;;;;22.13;100.00;101220.97;4937767;29;20401;-71
2021/07/22 03:08:35;;;;;;;3.55;2.70;;;;;;;22.11;100.00;101222.91;4937035;29;20070;-71
2021/07/22 03:11:21;;;;;;;5.65;3.00;;;;;;;22.24;100.00;101224.78;4937307;29;20464;-71
2021/07/22 03:14:06;;;;;;;6.97;2.67;;;;;;;22.06;100.00;101217.81;4937912;29;20027;-71
2021/07/22 03:16:52;;;;;;;8.00;3.50;;;;;;;21.98;100.00;101225.38;4941207;29;20031;-71
2021/07/22 03:19:38;;;;;;;9.52;4.55;;;;;;;21.98;100.00;101229.88;4940682;29;20373;-71
2021/07/22 03:22:23;;;;;;;9.07;4.20;;;;;;;22.14;100.00;101233.41;4941214;29;20023;-71
2021/07/22 03:25:10;;;;;;;7.15;4.40;;;;;;;22.29;100.00;101237.84;4941063;29;20047;-71
2021/07/22 03:27:59;;;;;;;6.70;4.30;;;;;;;22.11;100.00;101233.56;4941102;29;20024;-70
2021/07/22 03:30:45;;;;;;;6.65;4.10;;;;;;;21.77;100.00;101237.25;4940716;29;20035;-71
2021/07/22 03:33:31;;;;;;;7.43;4.70;;;;;;;22.23;100.00;101236.38;4940879;29;20041;-70
2021/07/22 03:36:17;;;;;;;7.03;4.00;;;;;;;22.19;100.00;101234.00;4940409;29;20455;-70
2021/07/22 03:39:02;;;;;;;9.48;4.05;;;;;;;22.29;100.00;101236.06;4941221;29;20106;-70
2021/07/22 03:41:48;;;;;;;8.32;4.22;;;;;;;22.49;100.00;101225.13;4940913;29;20460;-70
2021/07/22 03:44:35;;;;;;;6.18;3.88;;;;;;;22.42;100.00;101226.38;4940777;29;20075;-71
2021/07/22 03:47:21;;;;;;;7.28;3.63;;;;;;;22.47;100.00;101221.66;4927675;29;20023;-71
2021/07/22 03:50:07;;;;;;;6.55;3.50;;;;;;;22.37;100.00;101230.25;4926624;29;20437;-71
2021/07/22 03:52:54;;;;;;;7.25;3.65;;;;;;;22.59;100.00;101223.59;4940806;29;20471;-71
2021/07/22 03:55:40;;;;;;;6.05;3.50;;;;;;;22.49;100.00;101225.13;4940459;29;20050;-71
2021/07/22 03:58:26;;;;;;;10.15;4.15;;;;;;;22.34;100.00;101227.78;4940015;29;20020;-71
2021/07/22 04:01:12;;;;;;;7.22;3.63;;;;;;;22.52;100.00;101222.28;4940390;29;20110;-70
2021/07/22 04:03:57;;;;;;;6.47;3.92;;;;;;;22.38;100.00;101224.84;4939826;29;20032;-70
2021/07/22 04:06:44;;;;;;;6.60;3.70;;;;;;;22.07;100.00;101226.69;4940381;29;20028;-70
2021/07/22 04:09:30;;;;;;;8.68;4.00;;;;;;;22.22;100.00;101233.84;4939970;29;20067;-71
2021/07/22 04:12:17;;;;;;;5.53;3.50;;;;;;;22.25;100.00;101239.84;4939974;29;20100;-71
2021/07/22 04:15:03;;;;;;;5.25;3.60;;;;;;;22.40;100.00;101240.78;4940707;29;20424;-71
2021/07/22 04:17:50;;;;;;;5.63;3.88;;;;;;;22.38;100.00;101240.00;4940761;28;20020;-70
2021/07/22 04:20:36;;;;;;;7.45;3.92;;;;;;;22.47;100.00;101236.84;4939886;29;20039;-71
2021/07/22 04:23:22;;;;;;;7.50;4.20;;;;;;;22.63;100.00;101235.84;4940373;29;20055;-71
2021/07/22 04:26:14;;;;;;;7.90;3.95;;;;;;;22.45;100.00;101234.22;4938511;29;20036;-71
2021/07/22 04:29:00;;;;;;;7.65;3.85;;;;;;;22.72;100.00;101240.66;4940164;29;20055;-71
2021/07/22 04:31:45;;;;;;;6.25;4.57;;;;;;;22.52;100.00;101229.41;4939316;29;20034;-70
2021/07/22 04:34:31;;;;;;;8.55;4.85;;;;;;;22.76;100.00;101231.50;4939935;29;20036;-71
2021/07/22 04:37:17;;;;;;;7.70;3.90;;;;;;;22.27;100.00;101237.09;4939822;29;20492;-71
2021/07/22 04:40:06;;;;;;;10.98;4.22;;;;;;;22.35;100.00;101246.38;4939934;29;20031;-71
2021/07/22 04:42:51;;;;;;;9.18;4.25;;;;;;;22.66;100.00;101242.81;4939224;29;20031;-71
2021/07/22 04:45:37;;;;;;;7.50;5.05;;;;;;;22.51;100.00;101249.06;4940407;29;20051;-70
2021/07/22 04:48:23;;;;;;;8.15;4.97;;;;;;;22.71;100.00;101254.94;4939481;29;20092;-71
2021/07/22 04:51:09;;;;;;;6.45;4.53;;;;;;;22.43;100.00;101251.28;4939750;29;20031;-70
2021/07/22 04:53:54;;;;;;;8.23;4.03;;;;;;;22.34;100.00;101252.66;4939378;29;20027;-71
2021/07/22 04:56:40;;;;;;;6.70;3.63;;;;;;;22.20;100.00;101252.59;4938988;29;20020;-71
2021/07/22 04:59:26;;;;;;;5.93;4.15;;;;;;;22.45;100.00;101250.25;4939463;29;20027;-71
2021/07/22 05:02:12;;;;;;;8.07;3.75;;;;;;;22.05;100.00;101268.59;4939266;29;20028;-71
2021/07/22 05:04:57;;;;;;;8.25;4.18;;;;;;;22.15;100.00;101261.81;4938981;29;20038;-71
2021/07/22 05:07:43;;;;;;;8.90;4.57;;;;;;;22.21;100.00;101265.00;4939139;29;20294;-71
2021/07/22 05:10:32;;;;;;;9.25;4.82;;;;;;;22.18;100.00;101254.47;4938704;29;20063;-70
2021/07/22 05:13:18;;;;;;;8.10;5.10;;;;;;;22.26;100.00;101257.56;4938521;29;20031;-71
2021/07/22 05:16:04;;;;;;;9.55;5.20;;;;;;;22.04;100.00;101259.75;4939214;29;20372;-71
2021/07/22 05:18:52;;;;;;;12.73;5.50;;;;;;;21.95;100.00;101262.06;4939183;29;20031;-71
2021/07/22 05:21:38;;;;;;;9.48;5.53;;;;;;;22.01;100.00;101257.25;4938424;29;20028;-70
2021/07/22 05:24:24;;;;;;;9.50;5.55;;;;;;;22.07;100.00;101266.72;4939134;29;20090;-70
2021/07/22 05:27:14;;;;;;;8.52;5.43;;;;;;;22.47;100.00;101263.53;4939023;29;20032;-70
2021/07/22 05:29:59;;;;;;;13.20;5.78;;;;;;;22.34;100.00;101258.00;4938688;29;20490;-70
2021/07/22 05:32:45;;;;;;;9.07;6.05;;;;;;;22.37;100.00;101256.97;4938938;29;20349;-70
2021/07/22 05:35:32;;;;;;;7.20;5.43;;;;;;;22.31;100.00;101252.00;4938227;29;20465;-70
2021/07/22 05:38:18;;;;;;;10.77;6.75;;;;;;;22.11;100.00;101263.78;4937615;29;20027;-70
2021/07/22 05:41:06;;;;;;;12.35;6.72;;;;;;;22.05;100.00;101260.59;4938499;29;20100;-70
2021/07/22 05:43:52;;;;;;;15.43;7.95;;;;;;;21.91;100.00;101255.19;4938413;29;20051;-70
2021/07/22 05:46:37;;;;;;;14.77;7.95;;;;;;;22.27;100.00;101247.78;4938925;29;20036;-71
2021/07/22 05:49:23;;;;;;;19.40;8.80;;;;;;;21.91;100.00;101260.50;4938439;29;20046;-70
2021/07/22 05:52:09;;;;;;;14.68;9.57;;;;;;;22.39;100.00;101255.09;4937912;29;20027;-70
2021/07/22 05:54:56;;;;;;;16.25;10.40;;;;;;;22.35;100.00;101257.03;4938073;29;20130;-70
2021/07/22 05:57:42;;;;;;;20.15;10.98;;;;;;;22.58;100.00;101251.28;4937616;29;20028;-70
2021/07/22 06:00:27;;;;;;;20.90;12.70;;;;;;;22.63;100.00;101259.88;4937616;29;20032;-71
2021/07/22 06:03:13;;;;;;;21.35;12.48;;;;;;;22.74;100.00;101254.78;4937675;29;20023;-70
2021/07/22 06:05:59;;;;;;;17.98;11.38;;;;;;;23.09;100.00;101261.56;4938720;29;20047;-70
2021/07/22 06:08:44;;;;;;;17.35;11.05;;;;;;;23.15;100.00;101254.97;4938253;29;20036;-70
2021/07/22 06:11:31;;;;;;;17.80;11.25;;;;;;;23.87;100.00;101254.91;4937810;29;20071;-71
2021/07/22 06:14:17;;;;;;;19.23;10.70;;;;;;;24.01;100.00;101266.50;4936662;29;20491;-70
2021/07/22 06:17:04;;;;;;;16.52;10.30;;;;;;;22.94;100.00;101257.13;4937243;29;20016;-70
2021/07/22 06:19:49;;;;;;;17.20;10.63;;;;;;;23.51;100.00;101273.28;4923816;29;20027;-70
2021/07/22 06:22:38;;;;;;;15.48;9.48;;;;;;;23.73;100.00;101270.97;4925130;29;20028;-70
2021/07/22 06:25:24;;;;;;;16.55;9.23;;;;;;;23.79;100.00;101266.09;4937738;29;20508;-70
2021/07/22 06:28:10;;;;;;;13.05;8.68;;;;;;;24.00;100.00;101270.13;4938140;29;20042;-70
2021/07/22 06:30:56;;;;;;;12.00;7.65;;;;;;;24.20;100.00;101266.16;4937762;29;20133;-70
2021/07/22 06:33:42;;;;;;;13.52;7.50;;;;;;;24.37;100.00;101272.16;4924157;29;20082;-70
2021/07/22 06:36:27;;;;;;;11.77;8.52;;;;;;;24.03;100.00;101279.78;4937100;29;20364;-70
2021/07/22 06:39:13;;;;;;;18.42;9.43;;;;;;;24.17;100.00;101279.75;4937080;29;20028;-70
2021/07/22 06:42:00;;;;;;;15.00;8.85;;;;;;;24.48;100.00;101284.84;4937868;29;20134;-70
2021/07/22 06:44:46;;;;;;;13.57;8.90;;;;;;;24.36;100.00;101291.88;4936694;29;20054;-70
2021/07/22 06:47:31;;;;;;;14.23;8.50;;;;;;;24.74;100.00;101287.53;4937532;29;20141;-70
2021/07/22 06:50:17;;;;;;;17.23;7.90;;;;;;;25.31;100.00;101283.59;4936968;29;20444;-71
2021/07/22 06:53:04;;;;;;;12.10;7.40;;;;;;;25.49;100.00;101276.09;4937323;29;20445;-71
2021/07/22 06:55:54;;;;;;;12.52;7.15;;;;;;;26.07;100.00;101284.41;4937021;29;20031;-71
2021/07/22 06:58:39;;;;;;;10.00;6.60;;;;;;;26.28;100.00;101280.19;4937289;29;20368;-71
2021/07/22 07:01:25;;;;;;;8.73;5.80;;;;;;;26.12;100.00;101293.03;4936830;29;20032;-71
2021/07/22 07:04:11;;;;;;;11.32;6.28;;;;;;;26.47;100.00;101285.88;4936824;29;20063;-71
2021/07/22 07:06:56;;;;;;;11.82;5.90;;;;;;;26.13;100.00;101289.34;4924886;28;20067;-71
2021/07/22 07:09:42;;;;;;;10.85;6.00;;;;;;;25.97;100.00;101288.75;4936408;29;20128;-71
2021/07/22 07:12:28;;;;;;;10.23;5.78;;;;;;;26.23;100.00;101293.94;4936953;29;20031;-71
2021/07/22 07:15:14;;;;;;;11.57;6.50;;;;;;;26.47;100.00;101286.75;4937215;29;20027;-70
2021/07/22 07:18:03;;;;;;;8.77;5.80;;;;;;;26.56;100.00;101293.28;4937444;29;20020;-70
2021/07/22 07:20:50;;;;;;;11.40;6.65;;;;;;;26.53;100.00;101288.97;4937194;29;20364;-70
2021/07/22 07:23:35;;;;;;;10.38;5.15;;;;;;;25.77;100.00;101283.91;4936668;29;20467;-70
2021/07/22 07:26:21;;;;;;;9.55;5.53;;;;;;;25.58;100.00;101286.16;4936207;29;20181;-70
2021/07/22 07:29:07;;;;;;;12.20;5.65;;;;;;;25.96;100.00;101277.13;4936842;29;20038;-69
2021/07/22 07:31:58;;;;;;;9.30;6.15;;;;;;;26.39;100.00;101275.72;4936964;29;20027;-71
2021/07/22 07:34:44;;;;;;;9.52;5.90;;;;;;;26.35;100.00;101276.91;4936507;29;20028;-70
2021/07/22 07:37:30;;;;;;;7.68;6.30;;;;;;;26.30;100.00;101287.16;4936372;29;20356;-70
2021/07/22 07:40:16;;;;;;;10.13;6.15;;;;;;;26.02;100.00;101290.13;4936298;29;20445;-71
2021/07/22 07:43:02;;;;;;;13.77;7.95;;;;;;;25.96;100.00;101281.66;4936750;29;20444;-70
2021/07/22 07:45:48;;;;;;;13.82;6.80;;;;;;;26.21;100.00;101289.66;4936328;29;20032;-71
2021/07/22 07:48:34;;;;;;;14.57;7.57;;;;;;;26.18;100.00;101284.50;4937298;29;20031;-70
2021/07/22 07:51:19;;;;;;;12.10;7.13;;;;;;;25.86;100.00;101285.94;4936457;29;20181;-71
2021/07/22 07:54:05;;;;;;;11.40;6.68;;;;;;;26.07;100.00;101290.66;4937557;29;20039;-70
2021/07/22 07:56:51;;;;;;;8.43;6.85;;;;;;;26.26;100.00;101290.16;4936302;29;20118;-71
2021/07/22 07:59:37;;;;;;;8.35;6.32;;;;;;;26.64;100.00;101285.53;4937128;29;20123;-70
2021/07/22 08:02:22;;;;;;;12.30;7.85;;;;;;;25.85;100.00;101284.22;4938573;29;20038;-71
2021/07/22 08:05:09;;;;;;;8.52;5.90;;;;;;;26.57;100.00;101284.25;4940794;29;20071;-71
2021/07/22 08:07:55;;;;;;;14.10;8.82;;;;;;;26.97;100.00;101285.69;4940073;29;20020;-71
2021/07/22 08:10:41;;;;;;;8.93;5.55;;;;;;;26.83;100.00;101286.72;4940088;29;20114;-71
2021/07/22 08:13:27;;;;;;;12.20;6.18;;;;;;;27.13;99.72;101278.16;4939608;29;20118;-71
2021/07/22 08:16:17;;;;;;;6.53;3.50;;;;;;;27.44;85.51;101274.78;4940148;29;20471;-71
2021/07/22 08:19:04;;;;;;;6.10;4.35;;;;;;;27.81;86.77;101279.00;4940201;29;20031;-72
2021/07/22 08:21:49;;;;;;;7.35;4.18;;;;;;;27.78;82.58;101279.25;4940062;29;20086;-71
2021/07/22 08:24:35;;;;;;;7.55;3.88;;;;;;;27.37;84.57;101277.13;4941170;28;20027;-71
2021/07/22 08:27:28;;;;;;;8.43;3.90;;;;;;;27.62;82.74;101283.25;4939896;29;20047;-72
2021/07/22 08:30:14;;;;;;;7.38;3.72;;;;;;;27.92;82.40;101288.94;4941317;28;20040;-72
2021/07/22 08:33:01;;;;;;;6.03;3.05;;;;;;;28.34;75.05;101286.31;4940350;29;20536;-72
2021/07/22 08:35:46;;;;;;;8.85;3.15;;;;;;;27.90;74.83;101288.19;4939564;29;20046;-72
2021/07/22 08:38:32;;;;;;;3.97;2.65;;;;;;;28.21;71.10;101290.97;4939125;29;20066;-72
2021/07/22 08:41:18;;;;;;;4.55;3.08;;;;;;;28.17;71.10;101297.63;4939120;29;20127;-72
2021/07/22 08:44:07;;;;;;;6.28;3.13;;;;;;;27.70;71.35;101296.97;4938855;29;20368;-72
2021/07/22 08:46:54;;;;;;;6.35;3.33;;;;;;;28.20;67.68;101300.03;4939451;29;20028;-72
2021/07/22 08:49:40;;;;;;;7.85;3.05;;;;;;;27.52;66.76;101298.44;4939426;29;20372;-72
2021/07/22 08:52:27;;;;;;;7.40;2.90;;;;;;;27.44;69.98;101299.03;4939452;29;20437;-72
2021/07/22 08:55:13;;;;;;;5.88;2.92;;;;;;;27.90;68.57;101293.59;4939462;29;20032;-72
2021/07/22 08:57:59;;;;;;;4.68;2.80;;;;;;;28.07;67.89;101295.78;4939379;29;20034;-72
2021/07/22 09:00:45;;;;;;;5.75;3.42;;;;;;;28.16;70.23;101292.34;4939745;29;20384;-72
2021/07/22 09:03:31;;;;;;;5.43;3.03;;;;;;;28.87;67.42;101298.91;4939252;29;20042;-72
2021/07/22 09:06:17;;;;;;;7.93;3.13;;;;;;;28.80;64.88;101292.31;4939051;29;20345;-72
2021/07/22 09:09:12;;;;;;;5.82;2.90;;;;;;;28.10;64.66;101291.00;4938965;29;20087;-72
2021/07/22 09:12:02;;;;;;;12.88;3.35;;;;;;;28.34;64.56;101291.72;4939511;28;20094;-72
2021/07/22 09:14:57;;;;;;;7.40;3.38;;;;;;;28.77;63.35;101295.25;4938672;29;20383;-72
2021/07/22 09:17:43;;;;;;;6.78;3.22;;;;;;;29.00;60.62;101291.53;4939972;28;20091;-72
2021/07/22 09:20:33;;;;;;;4.82;3.20;;;;;;;29.18;60.93;101287.28;4940033;28;20075;-72
2021/07/22 09:23:27;;;;;;;5.05;2.95;;;;;;;29.13;59.21;101292.19;4939983;29;20114;-71
2021/07/22 09:26:30;;;;;;;6.60;3.40;;;;;;;28.99;61.67;101284.38;4924796;29;20028;-70
2021/07/22 09:29:17;;;;;;;7.70;3.08;;;;;;;29.69;60.46;101296.25;4939543;29;20034;-70
2021/07/22 09:32:06;;;;;;;5.15;2.78;;;;;;;28.39;60.85;101294.00;4938962;29;20039;-71
2021/07/22 09:35:09;;;;;;;5.00;3.00;;;;;;;28.81;60.73;101295.88;4939434;29;20027;-72
2021/07/22 09:37:56;;;;;;;4.95;3.40;;;;;;;29.40;57.89;101287.13;4939130;29;20050;-71
2021/07/22 09:40:43;;;;;;;4.05;3.10;;;;;;;28.79;60.30;101287.91;4939435;29;20027;-69
2021/07/22 09:43:37;;;;;;;5.88;3.25;;;;;;;29.22;58.87;101283.31;4938454;29;20059;-70
2021/07/22 09:46:40;;;;;;;7.80;3.47;;;;;;;29.73;59.70;101292.31;4938727;29;20042;-71
2021/07/22 09:49:37;;;;;;;6.35;3.30;;;;;;;29.89;57.52;101289.13;4925031;29;20035;-70
2021/07/22 09:52:25;;;;;;;4.43;3.03;;;;;;;30.25;50.30;101284.00;4938688;29;20051;-70
2021/07/22 09:55:22;;;;;;;5.43;2.88;;;;;;;30.23;49.91;101279.72;4938603;29;20059;-71
2021/07/22 09:58:10;;;;;;;6.35;3.30;;;;;;;30.84;50.73;101282.13;4938289;29;20078;-71
2021/07/22 10:01:00;;;;;;;5.93;3.38;;;;;;;30.68;50.23;101276.38;4938253;29;20028;-70
2021/07/22 10:03:46;;;;;;;5.22;3.00;;;;;;;30.79;47.94;101264.59;4938220;29;20031;-70
2021/07/22 10:06:35;;;;;;;5.35;2.72;;;;;;;30.80;47.58;101274.41;4937718;29;20028;-72
2021/07/22 10:09:23;;;;;;;4.60;3.17;;;;;;;30.47;48.30;101272.94;4938336;28;20103;-72
2021/07/22 10:12:09;;;;;;;4.03;2.90;;;;;;;30.21;51.24;101270.88;4938462;29;20028;-71
2021/07/22 10:14:57;;;;;;;4.68;3.47;;;;;;;30.03;49.97;101267.97;4938485;29;20488;-71
2021/07/22 10:17:45;;;;;;;6.13;3.67;;;;;;;29.47;51.62;101266.69;4938855;29;20031;-71
2021/07/22 10:20:35;;;;;;;5.82;3.30;;;;;;;29.82;50.62;101275.28;4938092;29;20131;-70
2021/07/22 10:23:22;;;;;;;5.93;4.72;;;;;;;30.09;50.05;101261.16;4938169;29;20094;-71
2021/07/22 10:26:09;;;;;;;4.47;3.38;;;;;;;29.56;51.35;101262.31;4923737;29;20429;-71
2021/07/22 10:28:55;;;;;;;4.75;2.97;;;;;;;29.84;50.96;101265.19;4937468;29;20055;-71
2021/07/22 10:31:45;;;;;;;4.00;3.40;;;;;;;29.58;48.57;101261.22;4923430;29;20047;-71
2021/07/22 10:34:33;;;;;;;7.88;5.60;;;;;;;29.64;48.21;101263.41;4937684;29;20027;-70
2021/07/22 10:37:20;;;;;;;8.70;4.88;;;;;;;29.74;47.67;101266.16;4937530;29;20385;-70
2021/07/22 10:40:09;;;;;;;5.10;2.90;;;;;;;29.36;48.09;101261.38;4937310;29;20107;-71
2021/07/22 10:42:54;;;;;;;3.65;2.92;;;;;;;29.62;48.02;101249.16;4937019;29;20055;-71
2021/07/22 10:45:52;;;;;;;5.50;2.83;;;;;;;29.20;50.52;101247.50;4923642;29;20518;-70
2021/07/22 10:48:40;;;;;;;7.93;3.42;;;;;;;29.26;49.65;101238.00;4937930;29;20028;-70
2021/07/22 10:51:38;;;;;;;4.00;3.10;;;;;;;29.69;49.27;101241.41;4937937;29;20050;-71
2021/07/22 10:54:45;;;;;;;5.80;3.08;;;;;;;29.37;47.92;101246.88;4937826;29;20027;-71
2021/07/22 10:57:37;;;;;;;7.00;3.38;;;;;;;29.44;46.87;101245.34;4937522;29;20042;-69
2021/07/22 11:00:42;;;;;;;8.90;3.00;;;;;;;29.52;47.89;101241.97;4937863;29;20051;-69
2021/07/22 11:03:38;;;;;;;4.97;2.80;;;;;;;29.88;47.08;101241.44;4938077;29;20032;-71
2021/07/22 11:06:24;;;;;;;3.53;2.72;;;;;;;30.14;45.32;101237.31;4937280;29;20042;-70
2021/07/22 11:09:09;;;;;;;7.90;2.95;;;;;;;29.68;44.70;101240.53;4937551;29;20043;-70
2021/07/22 11:11:56;;;;;;;4.68;2.88;;;;;;;30.48;44.37;101231.38;4937911;29;20453;-69
2021/07/22 11:14:42;;;;;;;4.60;2.92;;;;;;;30.35;43.41;101236.22;4937226;29;20035;-70
2021/07/22 11:17:42;;;;;;;7.57;3.67;;;;;;;30.44;44.21;101229.94;4937192;29;20031;-70
2021/07/22 11:20:32;;;;;;;8.88;3.20;;;;;;;30.59;44.21;101220.44;4937491;29;20031;-71
2021/07/22 11:23:18;;;;;;;5.45;3.47;;;;;;;30.80;43.32;101220.28;4937641;29;20099;-71
2021/07/22 11:26:04;;;;;;;7.55;3.10;;;;;;;31.34;43.14;101210.50;4936232;29;20027;-71
2021/07/22 11:28:50;;;;;;;5.95;3.03;;;;;;;31.50;41.63;101214.47;4937312;29;20028;-71
2021/07/22 11:31:43;;;;;;;5.22;2.80;;;;;;;31.22;41.18;101203.53;4935791;29;20521;-71
2021/07/22 11:34:30;;;;;;;5.60;2.70;;;;;;;31.13;41.68;101207.13;4936241;29;20031;-71
2021/07/22 11:37:17;;;;;;;3.55;2.80;;;;;;;31.42;41.77;101207.91;4940309;29;20028;-71
2021/07/22 11:40:08;;;;;;;4.10;2.50;;;;;;;30.85;42.35;101205.34;4926629;29;20471;-71
2021/07/22 11:42:54;;;;;;;4.03;2.60;;;;;;;30.89;40.07;101204.03;4940837;29;20031;-71
2021/07/22 11:45:44;;;;;;;3.08;2.70;;;;;;;30.57;39.23;101203.47;4940516;29;20042;-70
2021/07/22 11:48:30;;;;;;;6.53;2.90;;;;;;;30.67;38.67;101204.34;4940518;29;20039;-70
2021/07/22 11:51:15;;;;;;;5.18;2.80;;;;;;;30.96;39.58;101205.19;4939949;29;20027;-70
2021/07/22 11:54:02;;;;;;;3.50;2.78;;;;;;;31.33;40.90;101196.28;4940140;29;20054;-70
2021/07/22 11:56:49;;;;;;;5.63;3.08;;;;;;;31.01;41.56;101191.19;4940587;29;20098;-71
2021/07/22 11:59:34;;;;;;;6.50;2.60;;;;;;;30.85;42.37;101194.50;4940699;29;20035;-71
2021/07/22 12:02:26;;;;;;;4.60;3.45;;;;;;;31.11;41.33;101179.34;4941120;29;20449;-72
2021/07/22 12:05:13;;;;;;;7.57;2.97;;;;;;;31.49;40.81;101181.09;4941307;29;20032;-71
2021/07/22 12:08:15;;;;;;;2.90;2.55;;;;;;;31.37;39.41;101165.19;4939369;29;20031;-70
2021/07/22 12:11:03;;;;;;;3.28;2.70;;;;;;;31.33;40.25;101179.03;4939691;29;20059;-70
2021/07/22 12:13:53;;;;;;;5.80;3.05;;;;;;;31.30;39.70;101176.59;4939900;29;20106;-70
2021/07/22 12:16:39;;;;;;;10.32;2.97;;;;;;;31.30;38.45;101171.19;4940665;29;20015;-71
2021/07/22 12:19:27;;;;;;;2.85;2.55;;;;;;;31.59;36.73;101164.78;4939492;29;20032;-71
2021/07/22 12:22:27;;;;;;;10.30;2.95;;;;;;;31.69;36.25;101171.03;4940208;29;20363;-71
2021/07/22 12:25:16;;;;;;;5.22;2.95;;;;;;;31.68;37.03;101155.75;4940052;29;20035;-71
2021/07/22 12:28:01;;;;;;;5.93;2.75;;;;;;;31.67;35.66;101154.91;4939018;29;20058;-70
2021/07/22 12:30:47;;;;;;;4.35;2.95;;;;;;;32.53;35.85;101154.31;4939841;29;20024;-71
2021/07/22 12:33:33;;;;;;;3.67;2.88;;;;;;;32.23;36.66;101152.88;4939682;29;20115;-70
2021/07/22 12:36:20;;;;;;;2.97;2.58;;;;;;;31.95;36.19;101155.78;4939630;29;20027;-70
2021/07/22 12:39:17;;;;;;;6.80;3.03;;;;;;;32.07;36.35;101158.13;4939672;29;20357;-72
2021/07/22 12:42:13;;;;;;;6.97;3.10;;;;;;;32.05;37.23;101151.13;4925887;29;20078;-71
2021/07/22 12:45:13;;;;;;;5.57;3.30;;;;;;;31.47;36.82;101149.72;4939434;29;20035;-72
2021/07/22 12:47:59;;;;;;;5.10;3.40;;;;;;;31.15;39.74;101142.84;4938460;29;20063;-73
2021/07/22 12:50:47;;;;;;;5.18;3.28;;;;;;;31.19;37.12;101146.97;4939395;29;20035;-70